Airfield :
LOGIN :

Register | Disclaimer

   EN    FR    IT 

 










Legend :    VFR   Marginal VFR   IFR   Intensive IFR   Very Intensive IFR
Visi :
Ceiling :
>= 8 km
>= 3000ft
5 to 8 km
1000 to 3000 ft
1500m to 5 km
500 to 1000 ft
800 to 1500m
200 to 500 ft
< 800m
< 200 ft
Symbols :   Thunderstorms  Fog  Heavy snow  Heavy precipitations  Wind > 20 kt
SIGMETs :     Misc.  Thunderstorms  Icing  Turbulence  Mountain Waves  Volcanic Ashes






- Airport Elevation : 1247 ft
- IATA code : PRG


LKPR - Praha Ruzyne

CURRENT METAR :
  • 291530Z 27007KT 9999 SCT020 BKN047 08/06 Q1018 NOSIG

EXPIRED METARs :
  • 291521Z 26009KT 9999 -SHRA BKN025 08/06 Q1018 RMK REG QNH 1014
  • 291500Z 25011KT 9999 FEW037 08/05 Q1017 NOSIG
  • 291430Z 25010KT 9999 FEW040 08/05 Q1017 NOSIG
  • 291400Z 25013KT 9999 FEW040 08/06 Q1017 TEMPO FM1500 SHRA SCT030TCU
  • 291330Z 24012KT 9999 FEW035 BKN047 08/06 Q1016 NOSIG
  • 291300Z 26008KT 9999 -SHRA FEW017CB SCT040 07/05 Q1016 BECMG NSW SCT030

TAF TAF LKPR
Valid from the 29 at 12:00 until the 30 at 18:00 UTC


291100Z 2912/3018 23010KT 9999 SCT040
PROB40
TEMPO 2912/2916 28014G28KT SHRA SCT018CB BKN025
BECMG 3000/3002 -RA SCT013 BKN025
TEMPO 3002/3015 6000 -RA BKN013



MET'MAP, your aeronautical weather chart ! - Copyright ORBIFLY December 2007 - Disclaimer

ORBIFLY MET'MAP TEAM :

Programming & Development : Alexandra Zaïnal
Concept & original design : Baudouin d'Aumeries
Assistance for programming : Marc-Olivier Méhu
Technical & hardware support : Manuel Goepfert

Contact : metmap@orbifly.com




SOURCES & CREDITS :

   NOAA